createdAt,value
2019-05-19T00:00:27.199Z,14.90
2019-05-19T00:02:57.540Z,14.90
2019-05-19T00:05:28.411Z,14.90
2019-05-19T00:07:58.665Z,14.90
2019-05-19T00:10:28.857Z,14.80
2019-05-19T00:12:58.963Z,14.80
2019-05-19T00:15:29.105Z,14.80
2019-05-19T00:17:59.142Z,14.80
2019-05-19T00:20:29.540Z,14.80
2019-05-19T00:22:59.602Z,14.80
2019-05-19T00:25:29.998Z,14.80
2019-05-19T00:28:00.116Z,14.80
2019-05-19T00:30:31.731Z,14.80
2019-05-19T00:33:01.863Z,14.70
2019-05-19T00:35:32.008Z,14.70
2019-05-19T00:38:02.099Z,14.70
2019-05-19T00:40:32.253Z,14.80
2019-05-19T00:43:02.459Z,15.30
2019-05-19T00:45:32.558Z,14.90
2019-05-19T00:48:03.040Z,14.90
2019-05-19T00:50:33.190Z,14.90
2019-05-19T00:53:03.334Z,14.90
2019-05-19T00:55:33.629Z,14.90
2019-05-19T00:58:04.749Z,15.60
2019-05-19T01:00:34.986Z,14.90
2019-05-19T01:03:05.208Z,15.00
2019-05-19T01:05:35.346Z,14.90
2019-05-19T01:08:05.425Z,14.90
2019-05-19T01:10:35.603Z,14.90
2019-05-19T01:13:05.743Z,14.90
2019-05-19T01:15:35.783Z,14.90
2019-05-19T01:18:06.023Z,15.00
2019-05-19T01:20:36.147Z,15.00
2019-05-19T01:23:06.290Z,15.00
2019-05-19T01:25:36.807Z,15.00
2019-05-19T01:28:07.022Z,15.10
2019-05-19T01:30:37.540Z,15.00
2019-05-19T01:33:08.178Z,15.10
2019-05-19T01:35:38.336Z,15.10
2019-05-19T01:38:08.400Z,15.10
2019-05-19T01:40:38.754Z,15.10
2019-05-19T01:43:09.782Z,15.00
2019-05-19T01:45:39.904Z,15.00
2019-05-19T01:48:10.038Z,15.00
2019-05-19T01:50:40.443Z,15.00
2019-05-19T01:53:10.590Z,15.00
2019-05-19T01:55:40.739Z,15.00
2019-05-19T01:58:11.009Z,15.00
2019-05-19T02:00:41.164Z,14.90
2019-05-19T02:03:11.264Z,15.00
2019-05-19T02:05:41.714Z,14.90
2019-05-19T02:08:11.961Z,15.00
2019-05-19T02:10:42.071Z,15.00
2019-05-19T02:13:12.730Z,15.00
2019-05-19T02:15:42.846Z,15.00
2019-05-19T02:18:13.311Z,15.00
2019-05-19T02:20:43.663Z,15.00
2019-05-19T02:23:13.915Z,15.00
2019-05-19T02:25:44.038Z,15.10
2019-05-19T02:28:14.160Z,15.00
2019-05-19T02:30:44.602Z,15.00
2019-05-19T02:33:14.848Z,14.90
2019-05-19T02:35:45.566Z,14.80
2019-05-19T02:38:15.762Z,14.70
2019-05-19T02:40:51.160Z,14.70
2019-05-19T02:43:22.791Z,14.70
2019-05-19T02:45:57.313Z,14.70
2019-05-19T02:48:29.582Z,14.70
2019-05-19T02:51:01.848Z,14.70
2019-05-19T02:53:33.791Z,14.70
2019-05-19T02:56:04.841Z,14.60
2019-05-19T02:58:35.365Z,14.60
2019-05-19T03:01:05.876Z,14.50
2019-05-19T03:03:35.900Z,14.60
2019-05-19T03:06:09.079Z,14.60
2019-05-19T03:08:39.218Z,14.70
2019-05-19T03:11:10.769Z,14.60
2019-05-19T03:13:41.833Z,14.50
2019-05-19T03:16:12.424Z,14.50
2019-05-19T03:18:42.486Z,14.60
2019-05-19T03:21:12.612Z,14.60
2019-05-19T03:23:42.762Z,14.70
2019-05-19T03:26:13.096Z,14.70
2019-05-19T03:28:43.147Z,14.70
2019-05-19T03:31:30.987Z,14.70
2019-05-19T03:34:01.602Z,14.80
2019-05-19T03:36:31.760Z,14.80
2019-05-19T03:39:02.675Z,14.90
2019-05-19T03:41:33.140Z,14.90
2019-05-19T03:44:03.239Z,14.90
2019-05-19T03:46:33.410Z,14.90
2019-05-19T03:49:03.963Z,15.00
2019-05-19T03:51:34.211Z,15.00
2019-05-19T03:54:04.380Z,15.00
2019-05-19T03:56:34.466Z,14.90
2019-05-19T03:59:04.561Z,14.90
2019-05-19T04:01:34.647Z,14.80
2019-05-19T04:04:04.876Z,14.80
2019-05-19T04:06:34.951Z,14.70
2019-05-19T04:09:07.427Z,14.70
2019-05-19T04:11:37.632Z,14.70
2019-05-19T04:14:07.776Z,14.80
2019-05-19T04:16:37.916Z,14.80
2019-05-19T04:19:07.937Z,14.80
2019-05-19T04:21:48.411Z,14.80
2019-05-19T04:24:11.309Z,14.80
2019-05-19T04:26:41.411Z,14.80
2019-05-19T04:29:11.559Z,14.80
2019-05-19T04:31:41.983Z,14.70
2019-05-19T04:34:12.030Z,14.70
2019-05-19T04:36:42.813Z,14.70
2019-05-19T04:39:12.976Z,14.70
2019-05-19T04:41:43.105Z,14.80
2019-05-19T04:44:13.525Z,14.80
2019-05-19T04:46:43.593Z,14.80
2019-05-19T04:49:13.773Z,14.90
2019-05-19T04:51:43.941Z,14.90
2019-05-19T04:54:14.076Z,14.90
2019-05-19T04:56:44.940Z,15.00
2019-05-19T04:59:14.985Z,15.00
2019-05-19T05:01:45.362Z,15.00
2019-05-19T05:04:15.483Z,15.10
2019-05-19T05:06:49.147Z,15.10
2019-05-19T05:09:20.634Z,15.10
2019-05-19T05:11:51.222Z,15.20
2019-05-19T05:14:21.338Z,15.20
2019-05-19T05:16:52.670Z,15.20
2019-05-19T05:19:22.955Z,15.20
2019-05-19T05:21:53.503Z,15.30
2019-05-19T05:24:24.019Z,15.30
2019-05-19T05:26:54.282Z,15.30
2019-05-19T05:29:24.731Z,15.40
2019-05-19T05:31:55.429Z,15.40
2019-05-19T05:34:25.675Z,15.30
2019-05-19T05:36:57.396Z,15.30
2019-05-19T05:39:28.171Z,15.30
2019-05-19T05:41:58.274Z,15.30
2019-05-19T05:44:29.337Z,15.30
2019-05-19T05:46:59.362Z,15.30
2019-05-19T05:49:29.490Z,15.40
2019-05-19T05:51:59.969Z,15.40
2019-05-19T05:54:30.018Z,15.50
2019-05-19T05:57:00.539Z,15.60
2019-05-19T05:59:33.005Z,15.70
2019-05-19T06:02:03.594Z,15.70
2019-05-19T06:04:33.975Z,15.80
2019-05-19T06:07:04.482Z,15.90
2019-05-19T06:09:36.891Z,16.00
2019-05-19T06:12:08.236Z,16.00
2019-05-19T06:14:38.522Z,16.00
2019-05-19T06:17:10.427Z,16.10
2019-05-19T06:19:40.790Z,16.20
2019-05-19T06:22:11.379Z,16.20
2019-05-19T06:24:41.719Z,16.40
2019-05-19T06:27:12.760Z,16.50
2019-05-19T06:29:43.059Z,16.50
2019-05-19T06:32:25.541Z,16.50
2019-05-19T06:34:55.807Z,16.50
2019-05-19T06:37:27.300Z,16.60
2019-05-19T06:39:58.265Z,16.70
2019-05-19T06:42:28.508Z,16.80
2019-05-19T06:44:59.101Z,16.80
2019-05-19T06:47:29.443Z,16.80
2019-05-19T06:49:59.808Z,16.80
2019-05-19T06:52:29.922Z,16.80
2019-05-19T06:55:00.257Z,16.70
2019-05-19T06:57:31.084Z,17.60
2019-05-19T07:00:01.497Z,16.80
2019-05-19T07:02:32.436Z,16.80
2019-05-19T07:05:02.689Z,16.90
2019-05-19T07:07:33.263Z,16.90
2019-05-19T07:10:03.498Z,17.00
2019-05-19T07:12:34.052Z,17.00
2019-05-19T07:15:04.331Z,17.00
2019-05-19T07:17:34.672Z,16.90
2019-05-19T07:20:05.681Z,16.90
2019-05-19T07:22:37.568Z,17.00
2019-05-19T07:25:08.584Z,17.10
2019-05-19T07:27:39.239Z,17.10
2019-05-19T07:30:09.778Z,17.10
2019-05-19T07:32:40.379Z,17.10
2019-05-19T07:35:10.847Z,17.20
2019-05-19T07:37:42.614Z,17.30
2019-05-19T07:40:13.838Z,17.50
2019-05-19T07:42:44.108Z,17.80
2019-05-19T07:45:14.779Z,18.00
2019-05-19T07:47:44.971Z,18.20
2019-05-19T07:50:15.124Z,18.30
2019-05-19T07:52:46.384Z,18.30
2019-05-19T07:55:18.170Z,18.30
2019-05-19T07:57:48.721Z,18.60
2019-05-19T08:00:19.056Z,18.40
2019-05-19T08:02:49.616Z,18.00
2019-05-19T08:05:21.679Z,18.00
2019-05-19T08:07:52.180Z,18.00
2019-05-19T08:10:22.475Z,18.00
2019-05-19T08:12:52.931Z,17.90
2019-05-19T08:15:24.401Z,17.90
2019-05-19T08:17:55.010Z,17.80
2019-05-19T08:20:25.140Z,17.70
2019-05-19T08:22:55.746Z,17.60
2019-05-19T08:25:26.427Z,17.80
2019-05-19T08:28:06.388Z,17.90
2019-05-19T08:30:28.794Z,18.00
2019-05-19T08:32:59.291Z,18.00
2019-05-19T08:35:29.486Z,18.00
2019-05-19T08:37:59.749Z,18.00
2019-05-19T08:40:30.332Z,18.00
2019-05-19T08:43:00.577Z,18.20
2019-05-19T08:45:30.844Z,18.40
2019-05-19T08:48:01.051Z,18.70
2019-05-19T08:50:32.693Z,18.90
2019-05-19T08:53:04.960Z,18.90
2019-05-19T08:55:35.485Z,19.60
2019-05-19T08:58:05.874Z,19.60
2019-05-19T09:00:39.672Z,19.90
2019-05-19T09:03:11.335Z,20.20
2019-05-19T09:05:42.934Z,20.40
2019-05-19T09:08:13.704Z,20.50
2019-05-19T09:10:43.972Z,20.60
2019-05-19T09:13:18.480Z,20.70
2019-05-19T09:15:49.126Z,20.90
2019-05-19T09:18:19.441Z,21.30
2019-05-19T09:20:51.161Z,21.70
2019-05-19T09:23:23.642Z,22.10
2019-05-19T09:25:54.519Z,22.30
2019-05-19T09:28:24.792Z,22.10
2019-05-19T09:30:54.970Z,21.90
2019-05-19T09:33:25.635Z,21.90
2019-05-19T09:35:55.845Z,21.70
2019-05-19T09:38:42.245Z,21.30
2019-05-19T09:41:12.399Z,21.10
2019-05-19T09:43:43.158Z,20.80
2019-05-19T09:46:14.039Z,20.40
2019-05-19T09:48:45.454Z,20.30
2019-05-19T09:51:15.760Z,20.10
2019-05-19T09:53:46.471Z,19.90
2019-05-19T09:56:16.878Z,19.70
2019-05-19T09:58:47.547Z,20.00
2019-05-19T10:01:17.962Z,20.00
2019-05-19T10:03:48.777Z,20.00
2019-05-19T10:06:18.992Z,20.10
2019-05-19T10:08:57.156Z,20.20
2019-05-19T10:12:05.947Z,20.30
2019-05-19T10:14:36.871Z,20.30
2019-05-19T10:17:07.088Z,20.30
2019-05-19T10:19:37.724Z,20.40
2019-05-19T10:22:08.167Z,20.70
2019-05-19T10:24:38.838Z,21.20
2019-05-19T10:27:09.140Z,21.60
2019-05-19T10:29:42.277Z,21.90
2019-05-19T10:32:12.570Z,21.90
2019-05-19T10:34:44.482Z,21.90
2019-05-19T10:37:16.945Z,22.00
2019-05-19T10:39:47.261Z,22.40
2019-05-19T10:42:17.646Z,22.60
2019-05-19T10:44:50.377Z,22.80
2019-05-19T10:47:20.763Z,22.90
2019-05-19T10:49:51.832Z,23.00
2019-05-19T10:52:22.877Z,23.20
2019-05-19T10:54:54.834Z,23.30
2019-05-19T10:57:25.005Z,23.20
2019-05-19T10:59:57.438Z,23.10
2019-05-19T11:02:28.975Z,23.00
2019-05-19T11:04:59.782Z,22.90
2019-05-19T11:07:30.061Z,22.80
2019-05-19T11:10:01.191Z,22.70
2019-05-19T11:12:31.669Z,22.60
2019-05-19T11:15:02.469Z,22.30
2019-05-19T11:17:32.834Z,22.30
2019-05-19T11:20:03.927Z,22.40
2019-05-19T11:22:34.362Z,22.30
2019-05-19T11:25:04.883Z,22.30
2019-05-19T11:27:35.418Z,22.30
2019-05-19T11:30:07.580Z,22.30
2019-05-19T11:32:38.947Z,22.40
2019-05-19T11:35:10.983Z,22.70
2019-05-19T11:37:41.320Z,22.70
2019-05-19T11:40:13.530Z,22.80
2019-05-19T11:42:46.824Z,23.00
2019-05-19T11:45:16.899Z,23.20
2019-05-19T11:47:47.186Z,23.40
2019-05-19T11:50:17.375Z,24.50
2019-05-19T11:52:48.166Z,23.10
2019-05-19T11:55:18.495Z,23.20
2019-05-19T11:57:48.791Z,23.00
2019-05-19T12:00:19.332Z,23.00
2019-05-19T12:02:49.699Z,23.00
2019-05-19T12:05:20.419Z,23.10
2019-05-19T12:07:51.026Z,22.90
2019-05-19T12:10:22.920Z,22.70
2019-05-19T12:12:53.349Z,22.70
2019-05-19T12:15:24.049Z,22.60
2019-05-19T12:17:54.296Z,22.60
2019-05-19T12:20:25.086Z,22.60
2019-05-19T12:22:55.579Z,22.60
2019-05-19T12:25:27.993Z,22.60
2019-05-19T12:27:58.350Z,22.70
2019-05-19T12:30:29.357Z,22.70
2019-05-19T12:32:59.875Z,22.70
2019-05-19T12:35:30.519Z,22.60
2019-05-19T12:38:01.391Z,22.60
2019-05-19T12:40:32.817Z,22.40
2019-05-19T12:43:03.212Z,22.50
2019-05-19T12:45:33.934Z,22.50
2019-05-19T12:48:04.416Z,22.50
2019-05-19T12:50:34.668Z,22.50
2019-05-19T12:53:07.061Z,22.60
2019-05-19T12:55:38.162Z,22.70
2019-05-19T12:58:08.393Z,22.90
2019-05-19T13:00:38.703Z,23.00
2019-05-19T13:03:09.022Z,23.10
2019-05-19T13:05:39.325Z,23.20
2019-05-19T13:08:11.598Z,23.40
2019-05-19T13:10:42.544Z,23.60
2019-05-19T13:13:13.722Z,23.70
2019-05-19T13:15:44.135Z,23.80
2019-05-19T13:18:14.418Z,23.70
2019-05-19T13:20:44.655Z,23.70
2019-05-19T13:23:14.845Z,23.80
2019-05-19T13:25:45.642Z,23.80
2019-05-19T13:28:15.893Z,23.70
2019-05-19T13:30:49.381Z,23.70
2019-05-19T13:33:21.581Z,23.60
2019-05-19T13:36:13.202Z,23.50
2019-05-19T13:38:51.673Z,23.50
2019-05-19T13:41:35.305Z,23.60
2019-05-19T13:44:33.224Z,23.60
2019-05-19T13:47:04.085Z,23.60
2019-05-19T13:49:35.792Z,23.60
2019-05-19T13:52:08.937Z,23.80
2019-05-19T13:54:46.481Z,24.10
2019-05-19T13:57:17.687Z,24.10
2019-05-19T13:59:48.376Z,24.20
2019-05-19T14:02:19.348Z,24.30
2019-05-19T14:04:49.942Z,24.40
2019-05-19T14:07:20.206Z,24.30
2019-05-19T14:09:55.513Z,24.20
2019-05-19T14:12:26.024Z,24.20
2019-05-19T14:14:56.747Z,24.10
2019-05-19T14:17:26.968Z,24.00
2019-05-19T14:19:57.734Z,23.90
2019-05-19T14:22:28.128Z,23.70
2019-05-19T14:24:58.329Z,23.50
2019-05-19T14:27:30.880Z,23.40
2019-05-19T14:30:01.344Z,23.30
2019-05-19T14:32:31.580Z,23.20
2019-05-19T14:35:02.494Z,23.10
2019-05-19T14:37:32.919Z,23.00
2019-05-19T14:40:03.972Z,22.90
2019-05-19T14:42:46.403Z,22.80
2019-05-19T14:45:16.818Z,22.80
2019-05-19T14:47:47.143Z,22.80
2019-05-19T14:50:20.160Z,22.90
2019-05-19T14:52:52.086Z,23.00
2019-05-19T14:55:23.016Z,23.00
2019-05-19T14:57:53.275Z,23.10
2019-05-19T15:00:24.608Z,23.10
2019-05-19T15:02:54.751Z,23.10
2019-05-19T15:05:25.350Z,23.10
2019-05-19T15:07:55.738Z,23.10
2019-05-19T15:10:26.319Z,23.00
2019-05-19T15:12:56.641Z,23.00
2019-05-19T15:15:27.062Z,22.90
2019-05-19T15:17:57.249Z,22.90
2019-05-19T15:20:29.756Z,22.90
2019-05-19T15:23:02.918Z,22.80
2019-05-19T15:25:33.281Z,22.80
2019-05-19T15:28:05.352Z,22.80
2019-05-19T15:30:36.180Z,22.90
2019-05-19T15:33:06.808Z,22.90
2019-05-19T15:35:37.351Z,22.90
2019-05-19T15:38:08.448Z,22.90
2019-05-19T15:40:40.328Z,22.90
2019-05-19T15:43:10.572Z,23.00
2019-05-19T15:45:41.006Z,23.00
2019-05-19T15:48:11.361Z,23.20
2019-05-19T15:50:41.854Z,23.40
2019-05-19T15:53:12.362Z,23.80
2019-05-19T15:55:42.728Z,24.20
2019-05-19T15:58:16.649Z,24.70
2019-05-19T16:00:46.034Z,25.10
2019-05-19T16:03:17.575Z,25.50
2019-05-19T16:05:50.347Z,25.90
2019-05-19T16:08:21.005Z,26.30
2019-05-19T16:10:51.167Z,26.40
2019-05-19T16:13:22.176Z,26.30
2019-05-19T16:15:55.477Z,26.00
2019-05-19T16:18:26.333Z,25.70
2019-05-19T16:20:56.887Z,25.50
2019-05-19T16:23:27.802Z,25.20
2019-05-19T16:25:57.970Z,25.00
2019-05-19T16:28:31.048Z,24.80
2019-05-19T16:31:01.352Z,24.70
2019-05-19T16:33:32.133Z,24.60
2019-05-19T16:36:02.903Z,24.70
2019-05-19T16:38:34.004Z,24.80
2019-05-19T16:41:04.211Z,24.90
2019-05-19T16:43:34.583Z,24.80
2019-05-19T16:46:05.085Z,24.70
2019-05-19T16:48:35.335Z,24.60
2019-05-19T16:51:05.682Z,24.50
2019-05-19T16:53:36.101Z,24.40
2019-05-19T16:56:07.086Z,24.20
2019-05-19T16:58:45.048Z,24.10
2019-05-19T17:01:10.041Z,24.10
2019-05-19T17:03:40.465Z,24.00
2019-05-19T17:06:11.122Z,23.80
2019-05-19T17:08:44.734Z,23.50
2019-05-19T17:11:18.613Z,23.30
2019-05-19T17:13:49.344Z,23.00
2019-05-19T17:16:20.400Z,22.80
2019-05-19T17:18:50.623Z,22.60
2019-05-19T17:21:20.808Z,22.30
2019-05-19T17:23:51.559Z,22.10
2019-05-19T17:26:22.011Z,21.80
2019-05-19T17:29:00.739Z,21.60
2019-05-19T17:31:24.799Z,21.40
2019-05-19T17:33:55.838Z,21.30
2019-05-19T17:36:27.491Z,21.10
2019-05-19T17:38:58.767Z,20.90
2019-05-19T17:41:29.066Z,20.70
2019-05-19T17:44:01.132Z,20.40
2019-05-19T17:46:35.016Z,20.30
2019-05-19T17:49:05.372Z,20.10
2019-05-19T17:51:36.009Z,20.00
2019-05-19T17:54:07.551Z,19.80
2019-05-19T17:56:39.028Z,19.70
2019-05-19T17:59:16.421Z,19.50
2019-05-19T18:01:41.584Z,19.40
2019-05-19T18:04:12.733Z,19.30
2019-05-19T18:06:44.818Z,19.20
2019-05-19T18:09:15.118Z,19.10
2019-05-19T18:11:46.771Z,19.00
2019-05-19T18:14:16.958Z,18.90
2019-05-19T18:16:47.441Z,18.80
2019-05-19T18:19:17.540Z,18.70
2019-05-19T18:21:48.278Z,18.60
2019-05-19T18:24:18.435Z,18.60
2019-05-19T18:26:48.986Z,18.50
2019-05-19T18:29:30.505Z,18.50
2019-05-19T18:31:51.177Z,18.50
2019-05-19T18:34:22.819Z,18.40
2019-05-19T18:36:53.029Z,18.30
2019-05-19T18:39:23.649Z,18.30
2019-05-19T18:41:53.850Z,18.30
2019-05-19T18:44:26.607Z,18.20
2019-05-19T18:47:05.813Z,18.20
2019-05-19T18:49:36.009Z,18.20
2019-05-19T18:52:06.312Z,18.20
2019-05-19T18:54:36.825Z,18.10
2019-05-19T18:57:06.941Z,18.10
2019-05-19T18:59:46.806Z,18.00
2019-05-19T19:02:09.491Z,17.90
2019-05-19T19:04:39.688Z,17.80
2019-05-19T19:07:09.854Z,17.80
2019-05-19T19:09:40.264Z,17.80
2019-05-19T19:12:11.183Z,17.80
2019-05-19T19:14:41.731Z,17.80
2019-05-19T19:17:11.954Z,17.80
2019-05-19T19:19:42.391Z,17.80
2019-05-19T19:22:12.670Z,17.80
2019-05-19T19:24:42.787Z,17.70
2019-05-19T19:27:13.208Z,17.60
2019-05-19T19:29:43.289Z,17.50
2019-05-19T19:32:13.484Z,17.40
2019-05-19T19:34:43.627Z,17.30
2019-05-19T19:37:13.668Z,17.10
2019-05-19T19:39:44.299Z,16.90
2019-05-19T19:42:14.422Z,16.70
2019-05-19T19:44:44.808Z,16.50
2019-05-19T19:47:14.953Z,16.30
2019-05-19T19:49:45.233Z,16.10
2019-05-19T19:52:15.762Z,16.00
2019-05-19T19:54:45.996Z,15.90
2019-05-19T19:57:16.141Z,15.90
2019-05-19T19:59:46.829Z,15.80
2019-05-19T20:02:17.070Z,15.60
2019-05-19T20:04:47.215Z,15.60
2019-05-19T20:07:17.339Z,15.50
2019-05-19T20:09:47.576Z,15.50
2019-05-19T20:12:19.180Z,15.50
2019-05-19T20:14:49.398Z,15.50
2019-05-19T20:17:19.536Z,15.50
2019-05-19T20:19:49.774Z,15.40
2019-05-19T20:22:21.549Z,15.40
2019-05-19T20:24:52.038Z,15.30
2019-05-19T20:27:23.680Z,15.20
2019-05-19T20:29:53.959Z,15.10
2019-05-19T20:32:24.039Z,15.00
2019-05-19T20:34:54.238Z,15.00
2019-05-19T20:37:24.294Z,15.00
2019-05-19T20:39:54.545Z,15.00
2019-05-19T20:42:24.725Z,15.00
2019-05-19T20:44:56.459Z,15.00
2019-05-19T20:47:26.724Z,15.00
2019-05-19T20:49:56.801Z,15.00
2019-05-19T20:52:27.301Z,15.10
2019-05-19T20:54:57.441Z,15.10
2019-05-19T20:57:27.564Z,15.10
2019-05-19T20:59:57.761Z,15.10
2019-05-19T21:02:27.783Z,15.10
2019-05-19T21:04:58.325Z,15.20
2019-05-19T21:07:28.432Z,15.10
2019-05-19T21:09:58.997Z,15.30
2019-05-19T21:12:29.195Z,15.30
2019-05-19T21:14:59.593Z,15.30
2019-05-19T21:17:29.775Z,15.40
2019-05-19T21:19:59.949Z,15.40
2019-05-19T21:22:30.020Z,15.40
2019-05-19T21:25:00.574Z,15.40
2019-05-19T21:27:30.605Z,15.40
2019-05-19T21:30:00.733Z,15.40
2019-05-19T21:32:30.853Z,15.40
2019-05-19T21:35:00.976Z,15.50
2019-05-19T21:37:32.955Z,15.50
2019-05-19T21:40:03.048Z,15.50
2019-05-19T21:42:33.343Z,15.50
2019-05-19T21:45:03.541Z,15.50
2019-05-19T21:47:34.044Z,15.40
2019-05-19T21:50:04.971Z,15.40
2019-05-19T21:52:35.230Z,15.40
2019-05-19T21:55:06.026Z,15.40
2019-05-19T21:57:36.328Z,15.30
2019-05-19T22:00:08.826Z,15.30
2019-05-19T22:02:41.007Z,15.30
2019-05-19T22:05:11.819Z,15.30
2019-05-19T22:07:59.971Z,15.30
2019-05-19T22:10:30.132Z,15.20
2019-05-19T22:13:00.623Z,15.20
2019-05-19T22:15:30.651Z,15.20
2019-05-19T22:18:01.159Z,15.20
2019-05-19T22:20:31.199Z,15.20
2019-05-19T22:23:01.402Z,15.30
2019-05-19T22:25:31.877Z,15.30
2019-05-19T22:28:01.879Z,15.30
2019-05-19T22:30:32.161Z,15.40
2019-05-19T22:33:02.314Z,15.50
2019-05-19T22:35:32.726Z,15.50
2019-05-19T22:38:02.789Z,15.60
2019-05-19T22:40:32.929Z,15.60
2019-05-19T22:43:03.030Z,15.60
2019-05-19T22:45:35.751Z,15.60
2019-05-19T22:48:06.139Z,15.60
2019-05-19T22:50:36.181Z,15.60
2019-05-19T22:53:06.295Z,15.70
2019-05-19T22:55:36.443Z,15.70
2019-05-19T22:58:06.514Z,15.70
2019-05-19T23:00:37.038Z,15.70
2019-05-19T23:03:07.027Z,15.70
2019-05-19T23:05:37.061Z,15.70
2019-05-19T23:08:08.610Z,15.70
2019-05-19T23:10:38.627Z,15.70
2019-05-19T23:13:08.713Z,15.70
2019-05-19T23:15:38.893Z,15.70
2019-05-19T23:18:10.182Z,15.70
2019-05-19T23:20:40.414Z,15.80
2019-05-19T23:23:10.864Z,15.70
2019-05-19T23:25:40.940Z,15.70
2019-05-19T23:28:12.530Z,15.70
2019-05-19T23:30:42.600Z,15.70
2019-05-19T23:33:12.612Z,15.70
2019-05-19T23:35:42.933Z,15.70
2019-05-19T23:38:12.930Z,15.70
2019-05-19T23:40:43.372Z,15.80
2019-05-19T23:43:13.525Z,15.80
2019-05-19T23:45:45.096Z,15.80
2019-05-19T23:48:15.536Z,15.80
2019-05-19T23:50:45.624Z,15.80
2019-05-19T23:53:16.110Z,15.80
2019-05-19T23:55:46.149Z,15.80
2019-05-19T23:58:16.222Z,15.80
